• Join FlightAware (Why Join?)
  • Login
  • US Flag 
06:14AM EDT


 

Airport Tracker/Info


-or-


 

Live Flight TrackerFlight Track Log ✈ UAL4679 ✈ 16-Jun-2013 ✈ KEWR - KJAX

Flight Track Log - Related Links

Times and Time Zones

All times are in EDT time to prevent confusion due to time zone crossing. See the UAL4679 flight status page for this flight to view local times or setup timezone preferences in your user account.

Time Position Orientation Groundspeed Altitude Reporting Facility
EDT Latitude Longitude Course Direction KTS MPH feet Rate Location/Type
12:37PM 40.6667 -74.1833 194° South 162 186 1,400  Level New York TRACON
12:38PM 40.6167 -74.2167 207° Southwest 199 229 2,900 1,380 Climbing New York TRACON
12:40PM 40.3949 -74.1974 159° South  Level FlightAware Approximate
12:41PM 40.2947 -74.1518 194° South  Level FlightAware Approximate
12:41PM 40.4753 -74.2414 188° South 239 275 6,100  Level New York Center
12:42PM 40.1909 -74.1864 194° South  Level FlightAware Approximate
12:42PM 40.4072 -74.2108 161° South 251 289 6,100  Level New York Center
12:43PM 40.3397 -74.1747 158° South 267 307 6,700 1,080 Climbing New York Center
12:44PM 40.2667 -74.1739 180° South 262 302 8,300 1,800 Climbing New York Center
12:45PM 40.1931 -74.2000 195° South 259 298 10,300 1,200 Climbing New York Center
12:46PM 40.1089 -74.2258 193° South 285 328 10,800 960 Climbing New York Center
12:48PM 39.9050 -74.3500 205° Southwest 336 387 13,700 1,140 Climbing Washington Center
12:49PM 39.8267 -74.4217 215° Southwest 347 399 14,800 1,020 Climbing Washington Center
12:50PM 39.7586 -74.5119 226° Southwest 352 405 15,800 900 Climbing Washington Center
12:51PM 39.6886 -74.6019 225° Southwest 357 411 16,700 900 Climbing Washington Center
12:52PM 39.6183 -74.6944 225° Southwest 357 411 17,600 960 Climbing Washington Center
12:53PM 39.5483 -74.7869 226° Southwest 357 411 18,600 960 Climbing Washington Center
12:54PM 39.4758 -74.8844 226° Southwest 357 411 19,600 960 Climbing Washington Center
12:55PM 39.3994 -74.9872 226° Southwest 362 417 20,600 900 Climbing Washington Center
12:56PM 39.3247 -75.0819 224° Southwest 362 417 21,500 900 Climbing Washington Center
12:57PM 39.2314 -75.1442 207° Southwest 375 432 22,500 900 Climbing Washington Center
12:58PM 39.1272 -75.1875 198° South 375 432 23,400 900 Climbing Washington Center
12:59PM 39.0272 -75.2256 196° South 386 444 24,400 960 Climbing Washington Center
01:00PM 38.9253 -75.2714 199° South 386 444 25,400 960 Climbing Washington Center
01:01PM 38.8275 -75.3172 200° South 386 444 26,300 900 Climbing Washington Center
01:02PM 38.7422 -75.3842 211° Southwest 375 432 27,200 900 Climbing Washington Center
01:03PM 38.6589 -75.4586 215° Southwest 370 426 28,200 960 Climbing Washington Center
01:04PM 38.5775 -75.5306 215° Southwest 370 426 29,200 900 Climbing Washington Center
01:05PM 38.4922 -75.6022 213° Southwest 376 433 30,100 900 Climbing Washington Center
01:06PM 38.4108 -75.6739 215° Southwest 376 433 31,100 1,020 Climbing Washington Center
01:07PM 38.3272 -75.7478 215° Southwest 376 433 32,200 960 Climbing Washington Center
01:08PM 38.2500 -75.8086 212° Southwest 376 433 33,100 900 Climbing Washington Center
01:09PM 38.1686 -75.8822 215° Southwest 376 433 34,100 900 Climbing Washington Center
01:10PM 38.0850 -75.9506 213° Southwest 376 433 35,000 900 Climbing Washington Center
01:11PM 38.0033 -76.0239 215° Southwest 376 433 35,900 480 Climbing Washington Center
01:12PM 37.9197 -76.0944 214° Southwest 376 433 36,000  Climbing Washington Center
01:13PM 37.8486 -76.1544 214° Southwest 376 433 36,000  Level Washington Center
01:14PM 37.7397 -76.2483 214° Southwest 382 440 36,000  Level Washington Center
01:15PM 37.6433 -76.3314 214° Southwest 403 464 36,000  Level Washington Center
01:16PM 37.5447 -76.4142 214° Southwest 424 488 36,000  Level Washington Center
01:17PM 37.4378 -76.4889 209° Southwest 429 494 36,000  Level Washington Center
01:18PM 37.3164 -76.5267 194° South 437 503 36,000  Level Washington Center
01:19PM 37.1953 -76.5697 196° South 447 514 36,000  Level Washington Center
01:20PM 37.0964 -76.6517 213° Southwest 442 509 36,000  Level Washington Center
01:21PM 37.0017 -76.7414 217° Southwest 429 494 36,000  Level Washington Center
01:22PM 36.9050 -76.8308 217° Southwest 434 499 36,000  Level Washington Center
01:23PM 36.8100 -76.9253 219° Southwest 439 505 36,000  Level Washington Center
01:24PM 36.7131 -77.0144 216° Southwest 444 511 36,000  Level Washington Center
01:25PM 36.6181 -77.1058 218° Southwest 444 511 36,000  Level Washington Center
01:26PM 36.5231 -77.1969 218° Southwest 444 511 36,000  Level Washington Center
01:27PM 36.4278 -77.2853 217° Southwest 444 511 36,000  Level Washington Center
01:28PM 36.3328 -77.3761 218° Southwest 444 511 36,000  Level Washington Center
01:29PM 36.2269 -77.4742 217° Southwest 444 511 36,000  Level Washington Center
01:30PM 36.1314 -77.5644 217° Southwest 439 505 36,000  Level Washington Center
01:31PM 36.0464 -77.6653 224° Southwest 439 505 36,000  Level Washington Center
01:32PM 35.9836 -77.7867 237° Southwest 433 498 36,000  Level Washington Center
01:33PM 35.9208 -77.9081 237° Southwest 427 491 36,000  Level Washington Center
01:34PM 35.8317 -77.9925 218° Southwest 399 459 36,000  Level Washington Center
01:35PM 35.7278 -78.0661 210° Southwest 414 476 36,000  Level Washington Center
01:36PM 35.6219 -78.1394 209° Southwest 432 497 36,000  Level Washington Center
01:37PM 35.5161 -78.2128 209° Southwest 444 511 36,000  Level Washington Center
01:38PM 35.4311 -78.2764 211° Southwest 449 517 36,000  Level Washington Center
01:39PM 35.3144 -78.3564 209° Southwest 449 517 36,000  Level Washington Center
01:40PM 35.2125 -78.4342 212° Southwest 444 511 36,000  Level Washington Center
01:41PM 35.1128 -78.5069 211° Southwest 438 504 36,000  Level Washington Center
01:42PM 35.0086 -78.5817 210° Southwest 438 504 36,000  Level Washington Center
01:44PM 34.7736 -78.7453 210° Southwest 436 502 36,000  Level Jacksonville Center
01:45PM 34.6697 -78.8158 209° Southwest 436 502 36,000  Level Jacksonville Center
01:46PM 34.5658 -78.8914 211° Southwest 436 502 36,000  Level Jacksonville Center
01:47PM 34.4619 -78.9717 213° Southwest 436 502 36,000  Level Jacksonville Center
01:48PM 34.3556 -79.0444 209° Southwest 441 507 36,000  Level Jacksonville Center
01:49PM 34.2494 -79.1169 209° Southwest 441 507 36,000  Level Jacksonville Center
01:50PM 34.1431 -79.1917 210° Southwest 441 507 36,000  Level Jacksonville Center
01:51PM 34.0389 -79.2639 210° Southwest 436 502 36,000 -60 Level Jacksonville Center
01:52PM 33.9325 -79.3383 210° Southwest 447 514 35,900  Descending Jacksonville Center
01:53PM 33.8258 -79.4078 208° Southwest 442 509 36,000  Climbing Jacksonville Center
01:54PM 33.7306 -79.5064 221° Southwest 429 494 36,000 -300 Level Jacksonville Center
01:55PM 33.6497 -79.6117 227° Southwest 429 494 35,400 -660 Descending Jacksonville Center
01:56PM 33.5689 -79.7144 227° Southwest 424 488 34,700 -720 Descending Jacksonville Center
01:57PM 33.4881 -79.8194 227° Southwest 429 494 34,000 -720 Descending Jacksonville Center
01:58PM 33.3878 -79.9050 215° Southwest 436 502 33,300 -900 Descending Jacksonville Center
01:59PM 33.2789 -79.9781 209° Southwest 447 514 32,300 -1,020 Descending Jacksonville Center
02:00PM 33.1700 -80.0486 208° Southwest 447 514 31,300 -1,020 Descending Jacksonville Center
02:01PM 33.0653 -80.1239 211° Southwest 447 514 30,300 -660 Descending Jacksonville Center
02:02PM 32.9542 -80.1967 209° Southwest 468 539 30,000 -240 Descending Jacksonville Center
02:03PM 32.8492 -80.2667 209° Southwest 468 539 29,900  Descending Jacksonville Center
02:04PM 32.7400 -80.3389 209° Southwest 458 527 30,000  Climbing Jacksonville Center
02:05PM 32.6308 -80.4136 210° Southwest 458 527 30,000  Level Jacksonville Center
02:06PM 32.5175 -80.4881 209° Southwest 458 527 30,000  Level Jacksonville Center
02:07PM 32.4081 -80.5597 209° Southwest 458 527 30,000  Level Jacksonville Center
02:08PM 32.2967 -80.6339 209° Southwest 458 527 30,000 -300 Level Jacksonville Center
02:09PM 32.1872 -80.7053 209° Southwest 458 527 29,400 -900 Descending Jacksonville Center
02:10PM 32.0697 -80.7867 210° Southwest 437 503 28,300 -1,020 Descending Jacksonville Center
02:11PM 31.9603 -80.8578 209° Southwest 445 512 27,400 -960 Descending Jacksonville Center
02:12PM 31.8569 -80.9236 208° Southwest 458 527 26,400 -1,260 Descending Jacksonville Center
02:13PM 31.7350 -81.0044 209° Southwest 458 527 24,900 -1,680 Descending Jacksonville Center
02:14PM 31.6253 -81.0750 209° Southwest 453 521 23,100 -2,280 Descending Jacksonville Center
02:15PM 31.5322 -81.1353 209° Southwest 436 502 20,400 -2,940 Descending Jacksonville Center
02:16PM 31.4244 -81.2053 209° Southwest 409 471 17,300 -2,940 Descending Jacksonville Center
02:17PM 31.3397 -81.2628 210° Southwest 396 456 14,600 -2,940 Descending Jacksonville Center
02:18PM 31.2506 -81.3203 209° Southwest 391 450 11,500 -2,280 Descending Jacksonville Center
02:19PM 31.1553 -81.3803 208° Southwest 375 432 10,100 -780 Descending Jacksonville Center
02:20PM 31.0744 -81.4325 209° Southwest 354 407 10,000  Descending Jacksonville Center
02:21PM 30.9850 -81.4653 197° South 373 429 10,100  Climbing Jacksonville Center
02:22PM 30.8936 -81.4861 191° South 359 413 10,100 -120 Level Jacksonville Center
02:22PM 30.8853 -81.4886 194° South 364 419 10,000 -840 Descending Jacksonville Center
02:23PM 30.8208 -81.5356 212° Southwest 274 315 9,300 -1,380 Descending Jacksonville Center
02:24PM 30.7567 -81.5800 211° Southwest 275 316 7,600 -1,740 Descending Jacksonville Center
02:25PM 30.7008 -81.6267 216° Southwest 266 306 6,000 -1,620 Descending Jacksonville Center
02:25PM 30.6883 -81.6317 199° South 281 323 5,700 -1,620 Descending Jacksonville Center
02:26PM 30.6303 -81.6806 216° Southwest 269 310 3,900 -1,800 Descending Jacksonville Center